Time;durP1;ratioP1;P1;durP2;ratioP2;P2;SDS_P1;SDS_P2;PMS_P1;PMS_P2;Temp;Humidity;BMP_temperature;BMP_pressure;BME280_temperature;BME280_humidity;BME280_pressure;Samples;Min_cycle;Max_cycle;Signal;HPM_P1;HPM_P2
2022/12/23 00:01:41;;;;;;;2.40;1.50;;;;;;;3.84;100.00;92329.63;5082867;28;20075;-80
2022/12/23 00:07:33;;;;;;;2.50;1.40;;;;;;;3.84;100.00;92327.03;5082201;28;20040;-80
2022/12/23 00:09:58;;;;;;;1.40;1.00;;;;;;;3.84;100.00;92318.50;5082070;28;20054;-80
2022/12/23 00:15:27;;;;;;;2.08;1.30;;;;;;;3.83;100.00;92322.91;5064533;28;20158;-80
2022/12/23 00:17:53;;;;;;;2.22;1.42;;;;;;;3.80;100.00;92323.38;5082313;28;20029;-80
2022/12/23 00:20:38;;;;;;;2.22;1.40;;;;;;;3.82;100.00;92334.28;5085897;28;20028;-80
2022/12/23 00:23:04;;;;;;;2.15;1.35;;;;;;;3.79;100.00;92326.22;5086455;28;20081;-80
2022/12/23 00:28:54;;;;;;;2.63;1.50;;;;;;;3.72;100.00;92336.78;5100880;28;20066;-80
2022/12/23 00:31:20;;;;;;;2.30;1.48;;;;;;;3.68;100.00;92341.69;5068095;28;20040;-80
2022/12/23 00:33:50;;;;;;;2.35;1.40;;;;;;;3.62;100.00;92321.16;5085201;28;20042;-80
2022/12/23 00:54:33;;;;;;;;;;;;;;;3.59;100.00;92321.66;5085759;28;20422;-80
2022/12/23 00:56:59;;;;;;;2.38;1.38;;;;;;;3.58;100.00;92320.09;5066421;28;19956;-80
2022/12/23 00:59:25;;;;;;;2.15;1.45;;;;;;;3.57;100.00;92328.91;5084757;28;20036;-79
2022/12/23 01:08:38;;;;;;;2.47;1.40;;;;;;;3.52;100.00;92325.25;5084895;28;20044;-80
2022/12/23 01:11:05;;;;;;;2.45;1.40;;;;;;;3.58;100.00;92314.91;5085391;28;20048;-79
2022/12/23 01:14:10;;;;;;;2.60;1.40;;;;;;;3.69;100.00;92319.16;5085257;28;20028;-79
2022/12/23 01:16:37;;;;;;;2.20;1.42;;;;;;;3.69;100.00;92322.53;5085499;28;20089;-80
2022/12/23 01:19:04;;;;;;;2.35;1.50;;;;;;;3.72;100.00;92336.78;5084553;28;20040;-79
2022/12/23 01:25:23;;;;;;;2.28;1.40;;;;;;;3.55;100.00;92337.69;5084375;28;20039;-79
2022/12/23 01:31:44;;;;;;;2.17;1.40;;;;;;;3.48;100.00;92315.63;5090493;28;20052;-79
2022/12/23 01:34:29;;;;;;;3.03;1.60;;;;;;;3.45;100.00;92322.09;5083985;28;20036;-79
2022/12/23 01:36:54;;;;;;;2.15;1.40;;;;;;;3.45;100.00;92322.09;5066377;28;20043;-79
2022/12/23 01:39:20;;;;;;;2.08;1.40;;;;;;;3.45;100.00;92324.66;5066178;28;20032;-79
2022/12/23 01:45:13;;;;;;;2.60;1.30;;;;;;;3.42;100.00;92314.78;5066226;28;20085;-79
2022/12/23 01:47:55;;;;;;;3.03;1.33;;;;;;;3.40;100.00;92319.47;5083828;28;20075;-79
2022/12/23 01:51:00;;;;;;;2.33;1.50;;;;;;;3.39;100.00;92315.28;5083976;28;20035;-78
2022/12/23 01:56:48;;;;;;;2.63;1.40;;;;;;;3.37;100.00;92322.50;5083716;28;20533;-79
2022/12/23 02:03:40;;;;;;;3.03;1.50;;;;;;;3.36;100.00;92326.16;5048943;28;20032;-78
2022/12/23 02:05:28;;;;;;;2.08;1.38;;;;;;;3.33;100.00;92314.47;5082736;28;20051;-80
2022/12/23 02:12:05;;;;;;;;;;;;;;;3.30;100.00;92288.31;5082093;28;20040;-78
2022/12/23 02:25:03;;;;;;;2.40;1.40;;;;;;;3.16;100.00;92313.78;5084083;28;20036;-80
2022/12/23 02:27:37;;;;;;;3.53;1.38;;;;;;;3.14;100.00;92300.31;5065007;28;20475;-79
2022/12/23 02:35:08;;;;;;;2.10;1.33;;;;;;;3.10;100.00;92281.13;5103484;28;20050;-80
2022/12/23 02:38:18;;;;;;;1.90;1.30;;;;;;;3.11;100.00;92308.59;5103124;28;20024;-80
2022/12/23 02:41:05;;;;;;;2.20;1.50;;;;;;;3.09;100.00;92313.22;5102334;28;20523;-79
2022/12/23 02:47:09;;;;;;;3.20;1.70;;;;;;;3.16;100.00;92313.03;5088464;28;20482;-79
2022/12/23 02:49:39;;;;;;;2.03;1.38;;;;;;;3.12;100.00;92303.16;5102460;28;20032;-79
2022/12/23 02:52:12;;;;;;;3.20;1.80;;;;;;;3.10;100.00;92312.94;5102734;28;20042;-79
2022/12/23 02:58:15;;;;;;;2.35;1.40;;;;;;;3.04;100.00;92313.94;5102543;28;19926;-79
2022/12/23 03:04:36;;;;;;;2.97;1.45;;;;;;;3.02;100.00;92279.00;5102927;28;20059;-79
2022/12/23 03:10:32;;;;;;;2.72;1.48;;;;;;;2.97;100.00;92284.13;5101764;28;20054;-79
2022/12/23 03:13:07;;;;;;;2.40;1.48;;;;;;;2.94;100.00;92274.28;5102227;28;20040;-79
2022/12/23 03:15:42;;;;;;;1.92;1.35;;;;;;;2.87;100.00;92282.22;5103250;28;20027;-79
2022/12/23 03:18:20;;;;;;;2.05;1.50;;;;;;;2.88;100.00;92276.00;5101931;28;20070;-79
2022/12/23 03:20:53;;;;;;;2.60;1.40;;;;;;;2.87;100.00;92274.47;5102871;28;20028;-79
2022/12/23 03:23:39;;;;;;;2.63;1.48;;;;;;;2.87;100.00;92274.47;5101956;28;20040;-79
2022/12/23 03:26:15;;;;;;;2.85;1.60;;;;;;;2.86;100.00;92268.53;5102250;28;20484;-78
2022/12/23 03:28:59;;;;;;;1.60;1.20;;;;;;;2.87;100.00;92269.28;5060177;28;20081;-79
2022/12/23 03:31:29;;;;;;;2.25;1.40;;;;;;;2.88;100.00;92273.44;5083620;28;20120;-79
2022/12/23 03:40:58;;;;;;;2.40;1.30;;;;;;;2.77;100.00;92266.59;5083622;28;20042;-79
2022/12/23 03:43:42;;;;;;;3.08;1.60;;;;;;;2.76;100.00;92277.97;5101644;28;20562;-78
2022/12/23 03:46:15;;;;;;;1.55;1.23;;;;;;;2.78;100.00;92284.47;5102075;28;20072;-79
2022/12/23 03:48:55;;;;;;;2.40;1.50;;;;;;;2.74;100.00;92272.25;5100973;28;20043;-79
2022/12/23 03:51:28;;;;;;;3.83;1.58;;;;;;;2.65;100.00;92251.22;5101912;28;20028;-79
2022/12/23 03:54:19;;;;;;;2.33;1.30;;;;;;;2.65;100.00;92252.00;5102219;28;20046;-79
2022/12/23 03:59:52;;;;;;;2.58;1.40;;;;;;;2.59;100.00;92258.16;5101334;28;20087;-79
2022/12/23 04:02:34;;;;;;;2.35;1.42;;;;;;;2.60;100.00;92257.13;5082988;28;20031;-79
2022/12/23 04:08:34;;;;;;;2.55;1.48;;;;;;;2.53;100.00;92246.22;5096911;28;20040;-80
2022/12/23 04:11:00;;;;;;;3.05;1.50;;;;;;;2.52;100.00;92256.78;5107365;28;20047;-80
2022/12/23 04:17:21;;;;;;;2.58;1.55;;;;;;;2.47;100.00;92270.41;5108755;28;20074;-80
2022/12/23 04:23:15;;;;;;;3.55;1.50;;;;;;;2.42;100.00;92278.91;5102547;28;20646;-78
2022/12/23 04:25:40;;;;;;;2.35;1.40;;;;;;;2.46;100.00;92268.88;5083754;28;20067;-79
2022/12/23 04:28:26;;;;;;;2.33;1.50;;;;;;;2.40;100.00;92256.91;5103297;28;20127;-79
2022/12/23 04:30:54;;;;;;;3.10;1.58;;;;;;;2.42;100.00;92265.97;5081933;28;20062;-78
2022/12/23 04:33:19;;;;;;;2.60;1.48;;;;;;;2.39;100.00;92261.31;5099296;28;20178;-78
2022/12/23 04:35:45;;;;;;;2.42;1.40;;;;;;;2.42;100.00;92262.63;5064364;28;20052;-78
2022/12/23 04:41:32;;;;;;;2.30;1.40;;;;;;;2.42;100.00;92257.44;5103029;28;20080;-79
2022/12/23 04:43:58;;;;;;;2.10;1.50;;;;;;;2.41;100.00;92258.47;5084975;28;20442;-79
2022/12/23 04:49:54;;;;;;;1.88;1.33;;;;;;;2.35;100.00;92249.09;5102296;28;20040;-78
2022/12/23 04:52:19;;;;;;;2.20;1.40;;;;;;;2.36;100.00;92242.91;5067063;28;20058;-79
2022/12/23 04:58:15;;;;;;;1.83;1.30;;;;;;;2.35;100.00;92249.09;5102165;28;20063;-79
2022/12/23 05:00:40;;;;;;;1.98;1.30;;;;;;;2.33;100.00;92241.59;5102565;28;20558;-78
2022/12/23 05:03:25;;;;;;;1.98;1.23;;;;;;;2.34;100.00;92239.78;5102023;28;20027;-78
2022/12/23 05:05:51;;;;;;;2.42;1.40;;;;;;;2.36;100.00;92235.94;5105382;28;20097;-79
2022/12/23 05:08:16;;;;;;;2.47;1.40;;;;;;;2.36;100.00;92235.94;5105311;28;20445;-79
2022/12/23 05:10:44;;;;;;;2.65;1.60;;;;;;;2.34;100.00;92240.56;5102209;28;20035;-78
2022/12/23 05:13:10;;;;;;;2.95;1.60;;;;;;;2.31;100.00;92256.53;5101372;28;20398;-78
2022/12/23 05:15:35;;;;;;;3.50;1.50;;;;;;;2.31;100.00;92256.53;5085614;28;20039;-79
2022/12/23 05:21:55;;;;;;;1.95;1.30;;;;;;;2.27;100.00;92260.63;5105565;28;20476;-78
2022/12/23 05:27:48;;;;;;;2.05;1.35;;;;;;;2.20;100.00;92260.81;5102092;28;20566;-78
2022/12/23 05:30:13;;;;;;;2.72;1.48;;;;;;;2.20;100.00;92260.81;5100774;28;20052;-77
2022/12/23 05:32:39;;;;;;;2.20;1.40;;;;;;;2.19;100.00;92269.59;5102131;28;20506;-78
2022/12/23 05:35:42;;;;;;;1.90;1.20;;;;;;;2.19;100.00;92279.13;5107186;28;20039;-78
2022/12/23 05:38:47;;;;;;;1.67;1.25;;;;;;;2.21;100.00;92282.28;5114795;28;20080;-78
2022/12/23 05:41:13;;;;;;;2.53;1.50;;;;;;;2.21;100.00;92283.03;5113309;28;20034;-78
2022/12/23 05:43:38;;;;;;;2.05;1.30;;;;;;;2.21;100.00;92272.72;5109209;28;20028;-78
2022/12/23 05:46:08;;;;;;;2.22;1.30;;;;;;;2.27;100.00;92271.75;5089627;28;20139;-80
2022/12/23 05:48:34;;;;;;;2.28;1.30;;;;;;;2.33;100.00;92274.41;5087632;28;20070;-78
2022/12/23 05:51:00;;;;;;;2.10;1.38;;;;;;;2.38;100.00;92282.19;5104461;28;20482;-78
2022/12/23 05:57:20;;;;;;;1.85;1.23;;;;;;;2.41;100.00;92268.78;5105798;28;20507;-79
2022/12/23 06:00:23;;;;;;;1.88;1.20;;;;;;;2.44;100.00;92279.44;5085365;28;20062;-79
2022/12/23 06:02:49;;;;;;;2.30;1.40;;;;;;;2.46;100.00;92285.16;5066863;28;20117;-79
2022/12/23 06:05:14;;;;;;;4.80;1.60;;;;;;;2.45;100.00;92293.13;5062675;28;20032;-79
2022/12/23 06:07:40;;;;;;;2.20;1.30;;;;;;;2.44;100.00;92289.00;5081346;28;20127;-81
2022/12/23 06:10:08;;;;;;;3.03;1.42;;;;;;;2.41;100.00;92286.88;5092093;28;20036;-79
2022/12/23 06:12:34;;;;;;;2.72;1.60;;;;;;;2.42;100.00;92298.78;5043389;28;20059;-77
2022/12/23 06:15:01;;;;;;;2.30;1.50;;;;;;;2.41;100.00;92298.00;5078134;28;20039;-78
2022/12/23 06:17:26;;;;;;;2.47;1.60;;;;;;;2.36;100.00;92297.16;5077575;28;20032;-78
2022/12/23 06:19:52;;;;;;;4.57;1.60;;;;;;;2.31;100.00;92282.38;5080806;28;20305;-80
2022/12/23 06:22:20;;;;;;;2.05;1.40;;;;;;;2.32;100.00;92290.91;5085458;28;20024;-78
2022/12/23 06:24:46;;;;;;;1.60;1.25;;;;;;;2.33;100.00;92295.06;5060137;28;20072;-78
2022/12/23 06:27:12;;;;;;;3.60;1.50;;;;;;;2.32;100.00;92299.47;5059910;28;20040;-79
2022/12/23 06:29:39;;;;;;;2.15;1.30;;;;;;;2.32;100.00;92306.41;5067498;28;20036;-79
2022/12/23 06:32:05;;;;;;;2.25;1.40;;;;;;;2.33;100.00;92311.34;5075026;28;20045;-78
2022/12/23 06:34:30;;;;;;;2.17;1.40;;;;;;;2.34;100.00;92317.28;5088033;28;20108;-81
2022/12/23 06:36:57;;;;;;;2.45;1.50;;;;;;;2.34;100.00;92306.94;5077888;28;20037;-79
2022/12/23 06:39:23;;;;;;;2.45;1.40;;;;;;;2.37;100.00;92302.09;5078975;28;20032;-80
2022/12/23 06:41:49;;;;;;;2.20;1.40;;;;;;;2.46;100.00;92307.63;5079514;28;20052;-81
2022/12/23 06:44:15;;;;;;;2.08;1.40;;;;;;;2.51;100.00;92307.69;5059281;28;20028;-81
2022/12/23 06:46:41;;;;;;;3.50;1.60;;;;;;;2.53;100.00;92310.03;5077142;28;20075;-80
2022/12/23 06:49:06;;;;;;;2.80;1.48;;;;;;;2.47;100.00;92299.63;5042867;28;20405;-79
2022/12/23 06:51:34;;;;;;;2.53;1.50;;;;;;;2.48;100.00;92308.16;5078582;28;20040;-79
2022/12/23 06:53:59;;;;;;;2.67;1.55;;;;;;;2.48;100.00;92308.94;5061800;28;20063;-80
2022/12/23 06:56:26;;;;;;;3.40;1.63;;;;;;;2.49;100.00;92320.06;5028296;28;20095;-80
2022/12/23 06:58:52;;;;;;;4.65;2.15;;;;;;;2.49;100.00;92312.31;5078051;28;20059;-80
2022/12/23 07:01:55;;;;;;;4.60;2.40;;;;;;;2.52;100.00;92324.72;5077108;28;20044;-81
2022/12/23 07:04:20;;;;;;;5.07;2.10;;;;;;;2.53;100.00;92349.56;5059482;28;20032;-80
2022/12/23 07:06:46;;;;;;;3.35;1.67;;;;;;;2.57;100.00;92347.25;5077232;28;20020;-81
2022/12/23 07:09:12;;;;;;;3.50;1.80;;;;;;;2.61;100.00;92338.03;5076624;28;20033;-81
2022/12/23 07:11:37;;;;;;;3.10;1.60;;;;;;;2.65;100.00;92344.28;5077165;28;20040;-81
2022/12/23 07:14:42;;;;;;;2.25;1.35;;;;;;;2.73;100.00;92350.84;5060245;28;20039;-80
2022/12/23 07:17:08;;;;;;;2.90;1.70;;;;;;;2.81;100.00;92347.81;5056987;28;20399;-81
2022/12/23 07:19:53;;;;;;;2.95;1.70;;;;;;;2.92;100.00;92349.50;5039303;28;20044;-81
2022/12/23 07:22:19;;;;;;;2.65;1.60;;;;;;;3.03;100.00;92346.00;5038607;28;20407;-77
2022/12/23 07:24:46;;;;;;;2.75;1.70;;;;;;;3.14;100.00;92333.94;5054262;28;20037;-78
2022/12/23 07:27:12;;;;;;;2.47;1.50;;;;;;;3.32;100.00;92349.13;5052422;28;20045;-77
2022/12/23 07:29:38;;;;;;;3.08;1.50;;;;;;;3.72;100.00;92347.16;5052786;28;20040;-76
2022/12/23 07:32:05;;;;;;;1.58;1.23;;;;;;;4.86;100.00;92350.13;5052534;28;20040;-77
2022/12/23 07:34:31;;;;;;;3.63;1.80;;;;;;;6.15;100.00;92353.75;5037986;28;20045;-78
2022/12/23 07:36:56;;;;;;;2.67;1.70;;;;;;;7.35;100.00;92348.66;5021627;28;20041;-80
2022/12/23 07:39:22;;;;;;;4.40;1.80;;;;;;;8.48;100.00;92353.84;5058670;28;20033;-79
2022/12/23 07:41:49;;;;;;;2.42;1.73;;;;;;;9.41;92.44;92343.13;5040090;28;20171;-79
2022/12/23 07:44:14;;;;;;;1.98;1.40;;;;;;;10.12;85.45;92343.94;5056492;28;20025;-78
2022/12/23 07:46:40;;;;;;;2.17;1.45;;;;;;;10.65;78.31;92337.56;5056505;28;20030;-80
2022/12/23 07:49:05;;;;;;;2.63;1.60;;;;;;;10.54;75.93;92337.00;5042342;28;20041;-77
2022/12/23 07:51:51;;;;;;;2.65;1.58;;;;;;;10.38;75.89;92333.84;5074622;28;20047;-78
2022/12/23 07:54:17;;;;;;;2.53;1.60;;;;;;;9.62;77.18;92343.63;5042551;28;20047;-78
2022/12/23 07:56:43;;;;;;;2.38;1.58;;;;;;;8.96;79.58;92341.59;5075410;28;20021;-78
2022/12/23 07:59:09;;;;;;;2.53;1.60;;;;;;;8.29;83.25;92335.47;5071909;28;20040;-77
2022/12/23 08:01:34;;;;;;;2.83;1.63;;;;;;;7.88;85.48;92343.63;5039267;28;20037;-77
2022/12/23 08:04:00;;;;;;;3.25;1.75;;;;;;;7.45;87.76;92332.97;5055542;28;20118;-78
2022/12/23 08:06:25;;;;;;;2.60;1.60;;;;;;;7.11;90.79;92331.06;5072862;28;20047;-77
2022/12/23 08:08:51;;;;;;;2.80;1.63;;;;;;;7.00;91.82;92332.16;5072547;28;20068;-77
2022/12/23 08:11:17;;;;;;;2.50;1.60;;;;;;;7.33;92.73;92335.13;5072283;28;20087;-77
2022/12/23 08:13:47;;;;;;;3.33;1.90;;;;;;;8.08;90.21;92334.84;5072826;28;20055;-78
2022/12/23 08:16:12;;;;;;;2.90;1.50;;;;;;;9.53;85.37;92325.19;5054997;28;20433;-78
2022/12/23 08:18:40;;;;;;;2.20;1.42;;;;;;;10.98;76.56;92309.44;5054975;28;20055;-78
2022/12/23 08:21:14;;;;;;;2.92;1.75;;;;;;;11.83;69.30;92307.91;5072616;28;20075;-78
2022/12/23 08:23:42;;;;;;;2.22;1.52;;;;;;;12.57;65.28;92309.31;5072832;28;20036;-77
2022/12/23 08:26:10;;;;;;;2.22;1.50;;;;;;;12.63;63.35;92313.34;5074435;28;20043;-78
2022/12/23 08:28:38;;;;;;;2.20;1.50;;;;;;;13.65;59.64;92324.78;5075842;28;20037;-79
2022/12/23 08:31:06;;;;;;;2.42;1.52;;;;;;;13.17;61.52;92346.59;5074256;28;20044;-77
2022/12/23 08:33:33;;;;;;;3.45;1.50;;;;;;;14.01;58.64;92339.50;5073074;28;20036;-78
2022/12/23 08:35:59;;;;;;;2.08;1.40;;;;;;;12.86;58.26;92342.94;5076795;28;20027;-78
2022/12/23 08:38:26;;;;;;;2.35;1.42;;;;;;;11.62;63.11;92348.78;5076001;28;20131;-78
2022/12/23 08:40:51;;;;;;;2.40;1.50;;;;;;;10.94;65.69;92360.84;5079986;28;20041;-78
2022/12/23 08:43:17;;;;;;;2.42;1.45;;;;;;;10.33;65.73;92354.84;5079908;28;20028;-78
2022/12/23 08:45:45;;;;;;;3.10;1.20;;;;;;;9.66;67.05;92355.84;5062362;28;20036;-78
2022/12/23 08:48:11;;;;;;;1.85;1.33;;;;;;;9.13;70.61;92358.63;5078526;28;20052;-78
2022/12/23 08:50:38;;;;;;;2.30;1.30;;;;;;;8.98;71.46;92356.97;5079016;28;20059;-77
2022/12/23 08:53:05;;;;;;;2.10;1.40;;;;;;;8.82;73.44;92358.97;5078242;28;20032;-78
2022/12/23 08:55:45;;;;;;;2.33;1.60;;;;;;;8.65;74.71;92358.66;5078064;28;20556;-77
2022/12/23 08:58:13;;;;;;;2.80;1.63;;;;;;;8.60;74.79;92353.47;5060648;28;20036;-78
2022/12/23 09:00:39;;;;;;;2.88;1.80;;;;;;;8.95;76.91;92358.28;5079205;28;20025;-78
2022/12/23 09:03:23;;;;;;;4.72;1.90;;;;;;;9.53;72.62;92341.66;5078414;28;20032;-78
2022/12/23 09:05:49;;;;;;;3.67;1.98;;;;;;;9.76;69.89;92328.78;5063253;28;20043;-78
2022/12/23 09:08:16;;;;;;;2.50;1.67;;;;;;;9.78;69.52;92330.06;5078139;28;20020;-78
2022/12/23 09:10:43;;;;;;;2.75;1.67;;;;;;;9.38;71.01;92336.63;5078943;28;20054;-79
2022/12/23 09:13:12;;;;;;;3.20;1.60;;;;;;;9.37;69.23;92330.63;5078992;28;20029;-78
2022/12/23 09:15:44;;;;;;;3.08;1.60;;;;;;;9.44;70.53;92347.81;5077891;28;20025;-78
2022/12/23 09:18:13;;;;;;;3.08;1.90;;;;;;;9.59;71.91;92342.34;5043675;28;20560;-77
2022/12/23 09:20:38;;;;;;;2.92;1.70;;;;;;;9.56;70.40;92342.91;5078240;28;20044;-78
2022/12/23 09:23:05;;;;;;;2.53;1.40;;;;;;;9.63;68.24;92335.50;5078414;28;20032;-77
2022/12/23 09:25:32;;;;;;;3.20;1.60;;;;;;;9.95;68.93;92339.22;5078619;28;20051;-77
2022/12/23 09:27:58;;;;;;;3.10;1.40;;;;;;;10.25;67.40;92345.03;5078632;28;20098;-78
2022/12/23 09:30:24;;;;;;;2.70;1.45;;;;;;;10.59;65.26;92353.38;5061443;28;20033;-77
2022/12/23 09:32:50;;;;;;;2.22;1.20;;;;;;;10.83;64.45;92355.81;5060670;28;20043;-77
2022/12/23 09:35:15;;;;;;;2.35;1.60;;;;;;;10.61;63.99;92343.38;5079610;28;20032;-78
2022/12/23 09:37:41;;;;;;;5.22;1.90;;;;;;;10.21;67.81;92360.53;5059650;28;20028;-77
2022/12/23 09:40:11;;;;;;;4.40;1.80;;;;;;;9.85;68.28;92357.69;5059763;28;20040;-77
2022/12/23 09:42:55;;;;;;;3.53;2.00;;;;;;;10.10;68.76;92366.97;5077716;28;20040;-78
2022/12/23 09:45:39;;;;;;;3.72;1.70;;;;;;;10.03;69.19;92374.41;5077882;28;20028;-78
2022/12/23 09:48:12;;;;;;;2.72;1.60;;;;;;;10.33;67.59;92353.00;5078857;28;20391;-78
2022/12/23 09:50:40;;;;;;;2.47;1.55;;;;;;;10.36;67.39;92343.84;5078979;28;20064;-77
2022/12/23 09:53:15;;;;;;;2.97;1.80;;;;;;;10.59;66.67;92334.28;5079600;28;20083;-78
2022/12/23 09:56:04;;;;;;;2.75;1.77;;;;;;;10.82;64.25;92335.16;5085688;28;20059;-77
2022/12/23 09:58:53;;;;;;;2.53;1.67;;;;;;;10.90;63.38;92339.72;5073788;28;20032;-78
2022/12/23 10:01:27;;;;;;;2.85;1.70;;;;;;;10.93;64.20;92340.97;5089841;28;20063;-77
2022/12/23 10:04:29;;;;;;;4.97;1.77;;;;;;;10.97;63.97;92340.09;5078605;28;20028;-78
2022/12/23 10:07:04;;;;;;;3.50;1.90;;;;;;;10.66;64.72;92333.91;5079653;28;20043;-78
2022/12/23 10:09:45;;;;;;;3.20;1.88;;;;;;;10.33;66.90;92329.47;5080081;28;20110;-78
2022/12/23 10:12:44;;;;;;;3.45;1.90;;;;;;;9.73;68.58;92313.69;5079367;28;20041;-78
2022/12/23 10:15:28;;;;;;;3.70;2.10;;;;;;;9.74;70.71;92300.31;5061307;28;20029;-78
2022/12/23 10:17:57;;;;;;;4.07;2.42;;;;;;;9.80;71.67;92307.00;5061658;28;20037;-78
2022/12/23 10:20:40;;;;;;;3.63;2.22;;;;;;;9.76;72.21;92298.19;5078872;28;20032;-78
2022/12/23 10:23:14;;;;;;;4.28;2.30;;;;;;;10.00;69.60;92297.31;5074522;28;20037;-77
2022/12/23 10:25:52;;;;;;;4.00;2.20;;;;;;;10.26;69.19;92302.88;5076641;28;20028;-78
2022/12/23 10:28:18;;;;;;;4.10;2.42;;;;;;;10.52;67.07;92302.47;5061181;28;20083;-77
2022/12/23 10:30:56;;;;;;;3.25;1.95;;;;;;;10.66;66.23;92311.09;5061447;28;20028;-80
2022/12/23 10:33:29;;;;;;;2.65;1.50;;;;;;;10.91;64.38;92320.31;5079477;28;20105;-78
2022/12/23 10:36:20;;;;;;;;;;;;;;;10.90;62.83;92317.97;5079129;28;20505;-77
2022/12/23 10:39:10;;;;;;;2.28;1.40;;;;;;;10.76;62.88;92299.66;5058312;28;20265;-78
2022/12/23 10:41:49;;;;;;;2.45;1.50;;;;;;;10.83;63.52;92307.91;5077666;28;20040;-77
2022/12/23 10:44:52;;;;;;;2.08;1.40;;;;;;;10.62;63.56;92308.28;5079695;28;20036;-78
2022/12/23 10:47:23;;;;;;;3.47;1.30;;;;;;;10.77;65.11;92290.75;5060593;28;20126;-78
2022/12/23 10:50:08;;;;;;;2.08;1.42;;;;;;;11.06;63.28;92284.44;5078801;28;20055;-78
2022/12/23 10:52:38;;;;;;;3.03;1.60;;;;;;;11.19;61.72;92273.94;5078949;28;20055;-78
2022/12/23 10:55:04;;;;;;;2.67;1.60;;;;;;;11.40;62.56;92289.97;5075819;28;20505;-78
2022/12/23 10:57:50;;;;;;;3.00;1.75;;;;;;;11.30;61.96;92299.91;5080548;28;20025;-78
2022/12/23 11:00:20;;;;;;;3.05;1.70;;;;;;;11.36;63.29;92293.50;5078443;28;20442;-78
2022/12/23 11:03:14;;;;;;;3.13;1.77;;;;;;;11.50;61.66;92309.94;5061353;28;20058;-77
2022/12/23 11:05:40;;;;;;;2.97;1.77;;;;;;;10.99;63.11;92311.78;5079617;28;20123;-77
2022/12/23 11:08:08;;;;;;;5.53;1.80;;;;;;;10.90;64.97;92308.31;5041664;28;20032;-78
2022/12/23 11:10:34;;;;;;;2.15;1.25;;;;;;;11.11;63.36;92297.41;5078897;28;20081;-79
2022/12/23 11:13:00;;;;;;;3.70;2.38;;;;;;;10.83;66.67;92292.97;5079696;28;20028;-78
2022/12/23 11:15:26;;;;;;;4.13;2.30;;;;;;;10.66;66.79;92286.78;5079557;28;20036;-78
2022/12/23 11:18:10;;;;;;;3.40;2.03;;;;;;;10.45;67.44;92292.38;5078154;28;20544;-77
2022/12/23 11:20:37;;;;;;;3.67;2.10;;;;;;;10.31;68.54;92289.75;5078551;28;20040;-78
2022/12/23 11:23:05;;;;;;;3.75;2.30;;;;;;;10.30;68.20;92282.97;5078461;28;20044;-78
2022/12/23 11:25:35;;;;;;;3.70;2.00;;;;;;;10.73;67.07;92274.84;5079478;28;20072;-78
2022/12/23 11:28:05;;;;;;;3.58;1.70;;;;;;;10.89;64.53;92250.97;5080852;28;20107;-77
2022/12/23 11:30:35;;;;;;;3.80;2.20;;;;;;;11.00;66.09;92237.38;5071881;28;20067;-78
2022/12/23 11:33:00;;;;;;;3.63;2.33;;;;;;;10.88;68.11;92231.88;5070759;28;20032;-77
2022/12/23 11:35:45;;;;;;;3.10;2.10;;;;;;;10.48;68.84;92218.53;5064502;28;20099;-78
2022/12/23 11:38:13;;;;;;;4.80;2.50;;;;;;;9.93;72.32;92216.63;5023090;28;20048;-78
2022/12/23 11:40:50;;;;;;;4.00;2.50;;;;;;;9.84;72.38;92212.31;5056691;28;20049;-78
2022/12/23 11:43:16;;;;;;;3.53;2.30;;;;;;;9.90;69.35;92208.56;5056537;28;20514;-77
2022/12/23 11:46:16;;;;;;;3.90;2.35;;;;;;;10.15;70.97;92197.63;5055408;28;20482;-77
2022/12/23 11:48:42;;;;;;;4.20;2.38;;;;;;;10.33;68.74;92195.25;5037630;28;20411;-77
2022/12/23 11:51:47;;;;;;;4.30;2.70;;;;;;;10.27;69.83;92173.63;5055870;28;20096;-78
2022/12/23 11:54:19;;;;;;;3.97;2.55;;;;;;;10.26;69.92;92173.91;5036179;28;20033;-77
2022/12/23 11:56:50;;;;;;;3.30;2.22;;;;;;;10.22;68.83;92186.78;5054622;28;20053;-77
2022/12/23 11:59:25;;;;;;;3.95;2.53;;;;;;;10.36;69.61;92184.22;5055313;28;20055;-77
2022/12/23 12:01:50;;;;;;;4.75;2.40;;;;;;;10.52;68.64;92193.31;5053199;28;20036;-76
2022/12/23 12:04:21;;;;;;;3.65;2.33;;;;;;;10.50;67.36;92190.22;5052630;28;20486;-77
2022/12/23 12:06:47;;;;;;;3.83;2.35;;;;;;;10.80;67.61;92177.56;5053495;28;20052;-77
2022/12/23 12:09:13;;;;;;;4.00;2.17;;;;;;;11.12;67.24;92186.31;5035620;28;20041;-77
2022/12/23 12:11:56;;;;;;;3.83;2.47;;;;;;;10.70;65.76;92188.28;5052846;28;20129;-77
2022/12/23 12:14:45;;;;;;;;;;;;;;;10.74;66.93;92194.44;5051615;28;20028;-77
2022/12/23 12:17:23;;;;;;;3.53;2.40;;;;;;;10.43;68.13;92199.53;5039491;28;19913;-77
2022/12/23 12:20:04;;;;;;;3.15;2.10;;;;;;;10.44;68.02;92204.47;5051818;28;20072;-77
2022/12/23 12:22:47;;;;;;;2.92;1.90;;;;;;;10.68;66.68;92201.63;5052059;28;20065;-76
2022/12/23 12:25:19;;;;;;;3.95;1.77;;;;;;;10.99;64.06;92201.78;5052476;28;20041;-78
2022/12/23 12:27:49;;;;;;;;;;;;;;;11.29;64.18;92199.56;5054701;28;20120;-78
2022/12/23 12:30:19;;;;;;;2.00;1.50;;;;;;;11.67;62.24;92199.97;5058879;28;19951;-78
2022/12/23 12:32:53;;;;;;;3.00;1.70;;;;;;;11.42;64.68;92211.06;5058521;28;20040;-77
2022/12/23 12:35:37;;;;;;;4.65;1.80;;;;;;;11.34;63.94;92207.28;5054643;28;20048;-77
2022/12/23 12:38:18;;;;;;;3.03;1.73;;;;;;;11.47;63.22;92213.56;5054821;28;20032;-78
2022/12/23 12:40:52;;;;;;;2.83;1.70;;;;;;;11.53;63.05;92214.22;5036508;28;20105;-78
2022/12/23 12:43:23;;;;;;;3.42;1.80;;;;;;;11.69;62.52;92217.28;5036773;28;20067;-77
2022/12/23 12:49:55;;;;;;;3.42;2.22;;;;;;;11.45;65.06;92236.66;5054475;28;20044;-78
2022/12/23 12:52:25;;;;;;;3.47;2.00;;;;;;;11.29;63.95;92238.84;5054365;28;20044;-78
2022/12/23 12:54:57;;;;;;;4.40;2.40;;;;;;;11.22;65.17;92234.03;5054990;28;20375;-77
2022/12/23 12:57:41;;;;;;;2.85;1.58;;;;;;;10.93;63.19;92239.63;5054117;28;20087;-78
2022/12/23 13:00:23;;;;;;;3.05;1.85;;;;;;;11.15;64.07;92240.75;5054981;28;20036;-78
2022/12/23 13:03:12;;;;;;;2.67;1.50;;;;;;;11.34;62.38;92254.47;5055213;28;20045;-78
2022/12/23 13:06:06;;;;;;;2.78;1.50;;;;;;;10.95;63.09;92247.97;5054445;28;20029;-78
2022/12/23 13:09:10;;;;;;;3.05;1.95;;;;;;;10.48;66.52;92249.94;5052536;28;20155;-77
2022/12/23 13:11:48;;;;;;;5.30;3.80;;;;;;;9.95;71.22;92238.03;5052977;28;20063;-77
2022/12/23 13:14:50;;;;;;;5.25;3.85;;;;;;;9.83;72.10;92239.53;5034778;28;20036;-77
2022/12/23 13:17:24;;;;;;;5.70;3.50;;;;;;;9.62;73.33;92234.66;5052155;28;20160;-77
2022/12/23 13:20:14;;;;;;;6.45;4.28;;;;;;;9.09;77.68;92232.28;5052003;28;20037;-77
2022/12/23 13:22:43;;;;;;;5.80;3.95;;;;;;;8.84;78.73;92218.50;5051875;28;20087;-77
2022/12/23 13:25:17;;;;;;;5.63;3.65;;;;;;;8.59;81.70;92224.84;5053176;28;20059;-77
2022/12/23 13:28:01;;;;;;;5.38;3.78;;;;;;;8.39;82.08;92235.47;5055276;28;20056;-77
2022/12/23 13:30:33;;;;;;;8.88;3.67;;;;;;;8.37;81.67;92227.91;5035206;28;20080;-77
2022/12/23 13:33:03;;;;;;;5.35;3.60;;;;;;;8.11;83.43;92224.81;5035521;28;20040;-77
2022/12/23 13:36:20;;;;;;;5.53;3.17;;;;;;;7.95;83.29;92223.41;5034863;28;20080;-77
2022/12/23 13:39:11;;;;;;;6.45;3.08;;;;;;;7.98;81.51;92215.06;4964458;28;20057;-77
2022/12/23 13:41:51;;;;;;;4.60;2.92;;;;;;;7.87;81.21;92211.75;5017156;28;20044;-77
2022/12/23 13:44:18;;;;;;;4.45;3.10;;;;;;;7.67;82.83;92205.69;5034888;28;20025;-77
2022/12/23 13:47:14;;;;;;;4.95;3.00;;;;;;;7.65;83.89;92214.81;5034895;28;20498;-77
2022/12/23 13:50:12;;;;;;;4.80;2.90;;;;;;;7.61;85.26;92191.16;5034755;28;20068;-77
2022/12/23 13:52:59;;;;;;;5.25;3.40;;;;;;;7.47;85.02;92195.44;5034894;28;20025;-77
2022/12/23 13:55:30;;;;;;;4.40;2.90;;;;;;;7.53;85.84;92193.59;5034659;28;20033;-77
2022/12/23 13:58:20;;;;;;;4.93;2.90;;;;;;;7.45;85.68;92198.34;5016815;28;20057;-77
2022/12/23 14:01:15;;;;;;;4.65;3.20;;;;;;;7.38;87.18;92210.88;5034415;28;20037;-77
2022/12/23 14:03:41;;;;;;;4.15;2.70;;;;;;;7.45;87.06;92211.38;5034169;28;20123;-77
2022/12/23 14:06:23;;;;;;;4.55;3.00;;;;;;;7.59;85.79;92206.28;5034514;28;20029;-77
2022/12/23 14:08:50;;;;;;;3.85;2.60;;;;;;;7.76;85.21;92210.31;5034390;28;20049;-77
2022/12/23 14:11:30;;;;;;;4.13;2.70;;;;;;;7.90;84.09;92219.81;5034844;28;20063;-77
2022/12/23 14:14:00;;;;;;;4.30;2.80;;;;;;;7.93;83.17;92214.03;5034385;28;20499;-77
2022/12/23 14:16:29;;;;;;;6.82;2.80;;;;;;;7.93;83.86;92195.03;5016892;28;20129;-79
2022/12/23 14:19:12;;;;;;;4.35;2.85;;;;;;;7.92;83.60;92204.69;5034533;28;20030;-77